Decatur, IL (62521)

10:59 AM CST on February 12, 2016 (GMT -0600)
Sandhill Dr. | | Change Station
CLOSE
Current Station
Personal Weather Station
Location: Decatur, IL
Elevation: 676 ft
Nearby Weather Stations

Elev 676 ft 39.82 °N, 88.92 °W | Updated 6 seconds ago

Overcast
Overcast
25.3 °F
Feels Like 17 °F
N
7.5
Wind Variable Wind from WNW
Gusts 8.3 mph

Today
High -- | Low -- °F
--% Chance of Precip.
Yesterday
High -- | Low -- °F
Precip. -- in
Pressure 30.27 in
Visibility 10.0 miles
Clouds Overcast 1400 ft
Windchill 17 °F
Dew Point 25 °F
Humidity 97%
Rainfall 0.00 in
Snow Depth Not available.
6:52 AM 5:27 PM
Waxing Crescent, 22% visible
METAR KDEC 121654Z 29013KT 10SM OVC014 M04/M08 A3024 RMK AO2 SLP251 T10391078
Pressure 30.27 in
Visibility 10.0 miles
Clouds Overcast 1400 ft
Windchill 17 °F
Dew Point 25 °F
Humidity 97%
Rainfall 0.00 in
Snow Depth Not available.
6:52 AM 5:27 PM
Waxing Crescent, 22% visible
METAR KDEC 121654Z 29013KT 10SM OVC014 M04/M08 A3024 RMK AO2 SLP251 T10391078

10-Day Weather Forecast

Almanac

Astronomy

Feb. 12, 2016 Rise Set
Actual Time
Civil Twilight
Nautical Twilight
Astronomical Twilight
Moon
Length of Visible Light
Length of Day
Tomorrow will be .
, % of the Moon is Illuminated

Today's Extremes

State Highs State Lows

Community

WunderPhotos

Upload Photos

1,892,354 photos uploaded!

WunderBlog® & News

Nearby

Air Quality

  Air Quality AQ Index Pollutant
Not available.

Snow Depth

Station Depth Elevation

Earthquake Activity

City Distance Mag. Time & Date
Minimum magnitude displayed is 2.5.

Coastal Water Temperatures

Place Temperature

Stations

Nearby Weather Stations

Station Location Temp. Windchill Dew Point Humidity Wind Precip. Elev Updated Type
                   

Watches & Warnings

There are currently no watches in effect.